Terminal Aerodrome Forecast
Issued by NWS

Home | Current Version | Previous Version | Text Only | Print | Product List | Glossary On
Versions: 1 2 3 4 5 6 7 8 9 10 11 12 13 14 15 16 17 18 19 20 21 22 23 24 25 26 27 28 29 30 31 32 33
000
FTUS41 KGYX 171720
TAFMHT
TAF
KMHT 171720Z 1718/1818 18005KT P6SM FEW250
     FM172200 18006KT P6SM OVC100
     FM180100 17006KT 3SM -SN OVC025
     FM180600 16007KT 3/4SM -SN OVC006
     FM181100 31006KT P6SM OVC030
     FM181400 32012G20KT P6SM SCT050=

USA.gov is the U.S. government's official web portal to all federal, state and local government web resources and services.